createdAt,value
2024-05-09T00:00:15.530Z,7.60
2024-05-09T00:03:24.407Z,7.30
2024-05-09T00:06:11.046Z,9.90
2024-05-09T00:08:57.433Z,6.50
2024-05-09T00:11:43.656Z,8.50
2024-05-09T00:14:30.082Z,7.30
2024-05-09T00:17:16.154Z,10.90
2024-05-09T00:20:04.111Z,10.40
2024-05-09T00:22:53.401Z,10.30
2024-05-09T00:25:39.839Z,7.00
2024-05-09T00:28:26.073Z,10.00
2024-05-09T00:31:12.240Z,7.80
2024-05-09T00:33:58.564Z,7.70
2024-05-09T00:36:44.930Z,8.00
2024-05-09T00:39:31.125Z,9.70
2024-05-09T00:42:17.253Z,10.60
2024-05-09T00:45:03.512Z,10.70
2024-05-09T00:47:50.532Z,8.90
2024-05-09T00:50:42.587Z,10.10
2024-05-09T00:53:29.392Z,8.20
2024-05-09T00:56:16.795Z,7.00
2024-05-09T00:59:02.982Z,9.80
2024-05-09T01:01:50.171Z,12.30
2024-05-09T01:04:36.488Z,7.50
2024-05-09T01:07:23.666Z,9.10
2024-05-09T01:10:14.324Z,9.80
2024-05-09T01:13:07.739Z,8.30
2024-05-09T01:15:54.198Z,12.30
2024-05-09T01:18:40.615Z,10.70
2024-05-09T01:21:27.253Z,10.90
2024-05-09T01:24:13.197Z,10.40
2024-05-09T01:26:59.548Z,14.40
2024-05-09T01:29:45.991Z,12.40
2024-05-09T01:32:32.074Z,13.70
2024-05-09T01:35:23.175Z,13.80
2024-05-09T01:38:12.544Z,13.60
2024-05-09T01:40:59.010Z,16.30
2024-05-09T01:43:45.092Z,11.30
2024-05-09T01:46:31.076Z,13.00
2024-05-09T01:49:17.434Z,12.90
2024-05-09T01:52:04.097Z,11.50
2024-05-09T01:54:53.600Z,11.30
2024-05-09T01:57:39.915Z,8.50
2024-05-09T02:00:37.660Z,10.40
2024-05-09T02:03:27.449Z,9.30
2024-05-09T02:06:13.757Z,8.20
2024-05-09T02:08:59.669Z,8.30
2024-05-09T02:11:47.685Z,11.00
2024-05-09T02:14:34.080Z,15.40
2024-05-09T02:17:20.129Z,13.50
2024-05-09T02:20:06.731Z,11.80
2024-05-09T02:22:52.861Z,17.30
2024-05-09T02:25:41.919Z,12.80
2024-05-09T02:28:27.856Z,12.20
2024-05-09T02:31:14.498Z,12.90
2024-05-09T02:34:01.101Z,14.80
2024-05-09T02:36:47.986Z,13.00
2024-05-09T02:39:34.145Z,15.00
2024-05-09T02:42:21.294Z,24.90
2024-05-09T02:45:07.621Z,25.90
2024-05-09T02:47:55.403Z,28.40
2024-05-09T02:50:42.167Z,27.20
2024-05-09T02:53:28.425Z,25.30
2024-05-09T02:56:14.473Z,12.70
2024-05-09T02:59:00.660Z,18.20
2024-05-09T03:01:47.058Z,18.20
2024-05-09T03:04:33.480Z,13.30
2024-05-09T03:07:20.377Z,13.10
2024-05-09T03:10:14.606Z,17.80
2024-05-09T03:13:14.970Z,9.30
2024-05-09T03:16:02.527Z,18.00
2024-05-09T03:18:48.682Z,12.40
2024-05-09T03:21:40.530Z,9.30
2024-05-09T03:24:26.595Z,11.00
2024-05-09T03:27:12.969Z,17.00
2024-05-09T03:29:59.073Z,10.70
2024-05-09T03:32:45.436Z,10.10
2024-05-09T03:35:31.529Z,11.00
2024-05-09T03:38:17.644Z,11.40
2024-05-09T03:41:04.611Z,14.80
2024-05-09T03:43:51.289Z,11.20
2024-05-09T03:46:38.478Z,10.60
2024-05-09T03:49:25.207Z,14.80
2024-05-09T03:52:11.423Z,14.70
2024-05-09T03:54:57.830Z,13.70
2024-05-09T03:57:44.238Z,14.40
2024-05-09T04:00:36.896Z,15.00
2024-05-09T04:03:25.235Z,10.20
2024-05-09T04:06:12.091Z,12.40
2024-05-09T04:08:58.673Z,9.30
2024-05-09T04:11:45.158Z,9.40
2024-05-09T04:14:34.000Z,11.70
2024-05-09T04:17:20.242Z,13.30
2024-05-09T04:20:08.621Z,10.90
2024-05-09T04:22:56.777Z,9.50
2024-05-09T04:25:44.050Z,9.70
2024-05-09T04:28:30.543Z,11.50
2024-05-09T04:31:16.774Z,12.20
2024-05-09T04:34:04.326Z,10.70
2024-05-09T04:36:50.956Z,15.20
2024-05-09T04:39:37.106Z,11.90
2024-05-09T04:42:23.924Z,11.30
2024-05-09T04:45:10.594Z,12.10
2024-05-09T04:47:56.974Z,14.40
2024-05-09T04:50:43.325Z,14.20
2024-05-09T04:53:29.334Z,10.80
2024-05-09T04:56:15.504Z,14.00
2024-05-09T04:59:01.573Z,14.50
2024-05-09T05:01:47.762Z,14.80
2024-05-09T05:04:33.974Z,15.20
2024-05-09T05:07:20.066Z,14.90
2024-05-09T05:10:09.333Z,19.70
2024-05-09T05:13:16.683Z,17.50
2024-05-09T05:16:04.711Z,16.10
2024-05-09T05:18:51.211Z,17.50
2024-05-09T05:21:39.026Z,13.40
2024-05-09T05:24:25.156Z,12.50
2024-05-09T05:27:11.245Z,13.00
2024-05-09T05:29:57.563Z,13.00
2024-05-09T05:32:44.063Z,13.90
2024-05-09T05:35:30.477Z,15.20
2024-05-09T05:38:17.025Z,12.50
2024-05-09T05:41:03.586Z,12.70
2024-05-09T05:43:49.825Z,11.50
2024-05-09T05:46:35.844Z,12.00
2024-05-09T05:49:23.156Z,13.10
2024-05-09T05:52:10.930Z,9.30
2024-05-09T05:54:57.090Z,32.90
2024-05-09T05:57:43.492Z,9.30
2024-05-09T06:00:37.607Z,12.30
2024-05-09T06:03:25.776Z,9.20
2024-05-09T06:06:13.466Z,13.30
2024-05-09T06:08:59.802Z,14.90
2024-05-09T06:11:47.677Z,14.70
2024-05-09T06:14:33.802Z,10.00
2024-05-09T06:17:19.866Z,10.10
2024-05-09T06:20:13.250Z,13.50
2024-05-09T06:23:03.981Z,15.90
2024-05-09T06:25:53.088Z,10.00
2024-05-09T06:28:39.211Z,14.90
2024-05-09T06:31:25.391Z,16.50
2024-05-09T06:34:12.114Z,9.90
2024-05-09T06:36:58.014Z,11.90
2024-05-09T06:39:45.571Z,15.00
2024-05-09T06:42:32.802Z,10.70
2024-05-09T06:45:23.543Z,10.60
2024-05-09T06:48:10.471Z,9.50
2024-05-09T06:50:56.854Z,15.50
2024-05-09T06:53:43.085Z,12.00
2024-05-09T06:56:29.257Z,12.40
2024-05-09T06:59:15.235Z,12.60
2024-05-09T07:02:01.341Z,10.90
2024-05-09T07:04:47.945Z,10.30
2024-05-09T07:07:34.470Z,14.50
2024-05-09T07:10:28.656Z,14.40
2024-05-09T07:13:18.939Z,16.00
2024-05-09T07:16:05.288Z,11.20
2024-05-09T07:18:54.853Z,14.10
2024-05-09T07:21:43.704Z,10.20
2024-05-09T07:24:29.790Z,10.00
2024-05-09T07:27:16.055Z,11.90
2024-05-09T07:30:03.934Z,12.30
2024-05-09T07:32:52.204Z,12.50
2024-05-09T07:35:38.905Z,8.30
2024-05-09T07:38:25.160Z,16.10
2024-05-09T07:41:11.149Z,11.90
2024-05-09T07:43:57.396Z,11.50
2024-05-09T07:53:30.191Z,8.00
2024-05-09T07:55:29.042Z,10.00
2024-05-09T07:58:15.310Z,7.60
2024-05-09T08:01:04.278Z,13.00
2024-05-09T08:03:53.520Z,7.80
2024-05-09T08:06:40.090Z,9.60
2024-05-09T08:09:26.082Z,6.00
2024-05-09T08:12:15.091Z,8.90
2024-05-09T08:15:01.334Z,11.60
2024-05-09T08:17:47.501Z,9.40
2024-05-09T08:20:35.348Z,10.50
2024-05-09T08:23:23.496Z,7.70
2024-05-09T08:26:11.341Z,7.20
2024-05-09T08:28:57.337Z,9.70
2024-05-09T08:31:43.667Z,9.00
2024-05-09T08:34:30.114Z,10.00
2024-05-09T08:37:22.133Z,7.00
2024-05-09T08:40:19.834Z,6.00
2024-05-09T08:43:16.307Z,9.40
2024-05-09T08:46:04.224Z,7.80
2024-05-09T08:48:52.704Z,6.20
2024-05-09T08:51:39.408Z,6.60
2024-05-09T08:54:25.363Z,9.00
2024-05-09T08:57:12.776Z,6.80
2024-05-09T09:00:04.833Z,7.70
2024-05-09T09:02:52.869Z,6.50
2024-05-09T09:05:40.645Z,6.90
2024-05-09T09:08:28.244Z,9.60
2024-05-09T09:11:14.588Z,9.10
2024-05-09T09:14:00.667Z,8.90
2024-05-09T09:16:46.927Z,6.60
2024-05-09T09:19:33.568Z,12.70
2024-05-09T09:22:21.461Z,6.20
2024-05-09T09:25:08.792Z,8.00
2024-05-09T09:27:54.943Z,10.60
2024-05-09T09:30:42.065Z,8.40
2024-05-09T09:33:35.367Z,9.30
2024-05-09T09:36:22.038Z,7.30
2024-05-09T09:39:09.525Z,6.50
2024-05-09T09:41:56.376Z,6.40
2024-05-09T09:44:47.873Z,5.00
2024-05-09T09:47:39.781Z,8.40
2024-05-09T09:50:33.381Z,10.00
2024-05-09T09:53:22.816Z,7.90
2024-05-09T09:56:10.258Z,11.40
2024-05-09T09:58:57.258Z,7.50
2024-05-09T10:01:44.666Z,6.90
2024-05-09T10:04:34.965Z,5.20
2024-05-09T10:07:22.158Z,8.10
2024-05-09T10:10:11.134Z,9.80
2024-05-09T10:13:09.517Z,5.70
2024-05-09T10:15:55.872Z,6.30
2024-05-09T10:18:42.515Z,6.40
2024-05-09T10:21:29.148Z,5.20
2024-05-09T10:24:18.862Z,4.30
2024-05-09T10:27:05.000Z,4.20
2024-05-09T10:29:55.161Z,8.30
2024-05-09T10:32:41.481Z,6.80
2024-05-09T10:35:31.171Z,9.20
2024-05-09T10:38:17.729Z,10.10
2024-05-09T10:41:04.722Z,13.00
2024-05-09T10:43:51.407Z,9.00
2024-05-09T10:46:37.443Z,6.10
2024-05-09T10:49:23.862Z,11.30
2024-05-09T10:52:10.211Z,8.10
2024-05-09T10:54:56.672Z,9.20
2024-05-09T10:57:43.176Z,6.70
2024-05-09T11:00:36.040Z,10.50
2024-05-09T11:03:23.964Z,8.70
2024-05-09T11:06:11.142Z,8.30
2024-05-09T11:08:57.594Z,11.30
2024-05-09T11:11:43.904Z,11.50
2024-05-09T11:14:30.514Z,7.10
2024-05-09T11:17:16.968Z,7.00
2024-05-09T11:20:13.318Z,7.40
2024-05-09T11:23:06.834Z,6.60
2024-05-09T11:25:55.419Z,8.10
2024-05-09T11:28:46.070Z,5.40
2024-05-09T11:31:32.813Z,6.10
2024-05-09T11:34:19.396Z,6.60
2024-05-09T11:37:05.662Z,7.50
2024-05-09T11:39:53.763Z,11.10
2024-05-09T11:42:40.147Z,15.20
2024-05-09T11:45:27.217Z,5.60
2024-05-09T11:48:13.755Z,6.80
2024-05-09T11:51:01.775Z,5.50
2024-05-09T11:53:48.117Z,8.90
2024-05-09T11:56:37.714Z,10.00
2024-05-09T11:59:24.663Z,9.10
2024-05-09T12:02:11.117Z,7.20
2024-05-09T12:04:57.497Z,8.10
2024-05-09T12:07:43.857Z,7.90
2024-05-09T12:10:33.890Z,6.70
2024-05-09T12:13:22.128Z,6.00
2024-05-09T12:16:09.381Z,7.90
2024-05-09T12:18:55.827Z,4.30
2024-05-09T12:21:42.200Z,5.30
2024-05-09T12:24:30.338Z,10.20
2024-05-09T12:27:16.744Z,8.20
2024-05-09T12:30:04.677Z,10.00
2024-05-09T12:32:52.134Z,7.90
2024-05-09T12:35:38.504Z,5.40
2024-05-09T12:38:24.807Z,4.50
2024-05-09T12:41:10.985Z,9.10
2024-05-09T12:43:57.098Z,8.40
2024-05-09T12:46:43.357Z,7.30
2024-05-09T12:49:30.020Z,6.10
2024-05-09T12:52:16.741Z,6.20
2024-05-09T12:55:03.894Z,6.30
2024-05-09T12:57:50.489Z,4.00
2024-05-09T13:00:37.026Z,5.00
2024-05-09T13:03:23.261Z,9.40
2024-05-09T13:06:09.701Z,5.50
2024-05-09T13:08:58.146Z,4.80
2024-05-09T13:11:44.321Z,5.90
2024-05-09T13:14:30.355Z,5.20
2024-05-09T13:17:16.889Z,7.10
2024-05-09T13:20:04.275Z,5.60
2024-05-09T13:22:51.390Z,6.30
2024-05-09T13:25:38.247Z,7.40
2024-05-09T13:28:25.171Z,7.80
2024-05-09T13:31:11.599Z,7.40
2024-05-09T13:33:57.886Z,7.40
2024-05-09T13:36:44.160Z,4.50
2024-05-09T13:39:30.637Z,6.00
2024-05-09T13:42:17.365Z,6.00
2024-05-09T13:45:03.940Z,6.90
2024-05-09T13:47:50.428Z,6.00
2024-05-09T13:50:37.142Z,7.40
2024-05-09T13:53:25.100Z,8.40
2024-05-09T13:56:14.736Z,6.80
2024-05-09T13:59:00.698Z,7.00
2024-05-09T14:01:47.056Z,8.30
2024-05-09T14:04:33.403Z,5.90
2024-05-09T14:07:20.177Z,6.40
2024-05-09T14:10:13.711Z,7.90
2024-05-09T14:13:05.907Z,6.70
2024-05-09T14:15:52.377Z,6.20
2024-05-09T14:18:38.745Z,9.70
2024-05-09T14:21:25.240Z,6.30
2024-05-09T14:24:11.448Z,4.90
2024-05-09T14:26:57.632Z,5.10
2024-05-09T14:29:44.194Z,5.50
2024-05-09T14:32:30.896Z,6.90
2024-05-09T14:35:17.316Z,6.20
2024-05-09T14:38:06.267Z,5.20
2024-05-09T14:40:53.444Z,6.80
2024-05-09T14:43:39.575Z,4.50
2024-05-09T14:46:25.877Z,6.60
2024-05-09T14:49:12.743Z,6.10
2024-05-09T14:51:58.940Z,9.80
2024-05-09T14:54:45.020Z,6.80
2024-05-09T14:57:31.635Z,5.70
2024-05-09T15:00:26.077Z,11.30
2024-05-09T15:03:16.057Z,7.00
2024-05-09T15:06:02.757Z,6.50
2024-05-09T15:08:56.627Z,7.80
2024-05-09T15:11:43.775Z,5.90
2024-05-09T15:14:30.082Z,7.10
2024-05-09T15:17:16.609Z,4.60
2024-05-09T15:20:05.907Z,6.30
2024-05-09T15:22:55.441Z,6.10
2024-05-09T15:25:41.755Z,6.90
2024-05-09T15:28:28.297Z,5.70
2024-05-09T15:31:14.473Z,5.80
2024-05-09T15:34:01.082Z,6.20
2024-05-09T15:36:50.850Z,6.20
2024-05-09T15:39:37.360Z,6.20
2024-05-09T15:42:24.076Z,5.70
2024-05-09T15:45:10.324Z,5.90
2024-05-09T15:47:58.640Z,9.00
2024-05-09T15:50:45.300Z,3.80
2024-05-09T15:53:31.514Z,7.90
2024-05-09T15:56:17.659Z,5.70
2024-05-09T15:59:04.133Z,9.10
2024-05-09T16:01:51.546Z,6.00
2024-05-09T16:04:37.991Z,3.70
2024-05-09T16:07:24.602Z,6.50
2024-05-09T16:10:13.255Z,5.30
2024-05-09T16:13:05.987Z,6.60
2024-05-09T16:15:52.875Z,24.40
2024-05-09T16:18:39.614Z,11.30
2024-05-09T16:21:25.928Z,7.40
2024-05-09T16:24:12.120Z,5.00
2024-05-09T16:27:01.411Z,8.80
2024-05-09T16:29:47.704Z,10.30
2024-05-09T16:32:34.260Z,10.60
2024-05-09T16:35:20.223Z,31.40
2024-05-09T16:38:06.500Z,29.90
2024-05-09T16:40:52.953Z,12.90
2024-05-09T16:43:38.997Z,7.60
2024-05-09T16:46:25.287Z,5.20
2024-05-09T16:49:11.599Z,5.60
2024-05-09T16:51:58.264Z,7.10
2024-05-09T16:54:47.019Z,7.60
2024-05-09T16:57:33.606Z,6.40
2024-05-09T17:00:30.910Z,7.60
2024-05-09T17:03:25.622Z,6.40
2024-05-09T17:06:11.641Z,4.50
2024-05-09T17:09:04.895Z,6.90
2024-05-09T17:11:54.378Z,10.80
2024-05-09T17:14:40.431Z,5.40
2024-05-09T17:17:26.745Z,6.90
2024-05-09T17:20:23.097Z,7.50
2024-05-09T17:23:16.144Z,7.40
2024-05-09T17:26:02.411Z,11.50
2024-05-09T17:28:50.181Z,10.10
2024-05-09T17:31:36.760Z,11.10
2024-05-09T17:34:23.704Z,7.30
2024-05-09T17:37:10.011Z,8.60
2024-05-09T17:39:57.029Z,8.60
2024-05-09T17:42:43.285Z,8.30
2024-05-09T17:45:29.497Z,7.10
2024-05-09T17:48:16.998Z,6.00
2024-05-09T17:51:03.344Z,7.90
2024-05-09T17:53:50.090Z,7.80
2024-05-09T17:56:36.310Z,6.40
2024-05-09T17:59:22.624Z,8.70
2024-05-09T18:02:09.494Z,5.40
2024-05-09T18:04:55.830Z,5.80
2024-05-09T18:07:41.974Z,6.60
2024-05-09T18:10:35.222Z,7.00
2024-05-09T18:13:26.089Z,6.30
2024-05-09T18:16:13.152Z,9.90
2024-05-09T18:18:59.751Z,7.70
2024-05-09T18:21:46.086Z,8.40
2024-05-09T18:24:32.564Z,10.30
2024-05-09T18:27:19.049Z,18.60
2024-05-09T18:30:09.467Z,11.40
2024-05-09T18:32:58.024Z,10.70
2024-05-09T18:35:45.244Z,9.00
2024-05-09T18:38:31.911Z,8.90
2024-05-09T18:41:20.672Z,11.40
2024-05-09T18:44:06.860Z,11.40
2024-05-09T18:46:53.349Z,9.30
2024-05-09T18:49:39.824Z,7.20
2024-05-09T18:52:25.827Z,12.00
2024-05-09T18:55:14.014Z,10.80
2024-05-09T18:58:00.367Z,10.00
2024-05-09T19:00:50.211Z,9.50
2024-05-09T19:03:38.805Z,8.00
2024-05-09T19:06:25.606Z,9.90
2024-05-09T19:09:12.027Z,8.40
2024-05-09T19:12:02.993Z,13.40
2024-05-09T19:14:49.405Z,13.90
2024-05-09T19:17:39.608Z,14.70
2024-05-09T19:20:31.929Z,19.30
2024-05-09T19:23:21.269Z,18.00
2024-05-09T19:26:08.395Z,13.50
2024-05-09T19:28:55.012Z,28.00
2024-05-09T19:31:41.220Z,29.60
2024-05-09T19:34:28.167Z,26.60
2024-05-09T19:37:14.685Z,29.00
2024-05-09T19:40:01.081Z,24.00
2024-05-09T19:42:47.442Z,20.90
2024-05-09T19:45:35.003Z,16.20
2024-05-09T19:48:22.502Z,15.10
2024-05-09T19:51:08.699Z,15.30
2024-05-09T19:53:55.153Z,13.10
2024-05-09T19:56:44.971Z,16.40
2024-05-09T19:59:31.560Z,11.80
2024-05-09T20:02:19.292Z,14.30
2024-05-09T20:05:05.844Z,13.90
2024-05-09T20:07:52.052Z,15.50
2024-05-09T20:10:38.713Z,18.20
2024-05-09T20:13:25.157Z,13.70
2024-05-09T20:16:11.786Z,10.90
2024-05-09T20:18:58.347Z,15.30
2024-05-09T20:21:45.101Z,13.30
2024-05-09T20:24:31.465Z,10.20
2024-05-09T20:27:17.700Z,10.40
2024-05-09T20:30:09.727Z,15.40
2024-05-09T20:35:47.256Z,15.00
2024-05-09T20:38:34.010Z,14.50
2024-05-09T20:41:21.116Z,13.50
2024-05-09T20:44:07.283Z,10.40
2024-05-09T20:46:54.009Z,9.50
2024-05-09T20:49:42.068Z,12.90
2024-05-09T20:52:28.635Z,10.30
2024-05-09T20:55:16.279Z,14.40
2024-05-09T20:58:02.491Z,14.60
2024-05-09T21:00:51.359Z,17.30
2024-05-09T21:03:38.281Z,13.40
2024-05-09T21:06:27.139Z,13.30
2024-05-09T21:09:13.412Z,14.70
2024-05-09T21:11:59.776Z,12.30
2024-05-09T21:14:45.719Z,12.80
2024-05-09T21:17:32.112Z,23.50
2024-05-09T21:20:23.997Z,16.60
2024-05-09T21:23:15.231Z,32.50
2024-05-09T21:26:01.767Z,37.20
2024-05-09T21:28:48.166Z,46.90
2024-05-09T21:31:34.437Z,39.20
2024-05-09T21:34:20.563Z,39.90
2024-05-09T21:37:06.604Z,24.30
2024-05-09T21:39:52.665Z,15.70
2024-05-09T21:42:38.760Z,18.50
2024-05-09T21:45:24.645Z,20.50
2024-05-09T21:48:12.605Z,16.30
2024-05-09T21:50:59.031Z,17.40
2024-05-09T21:53:45.284Z,17.80
2024-05-09T21:56:31.353Z,19.00
2024-05-09T21:59:19.870Z,15.90
2024-05-09T22:02:05.948Z,14.80
2024-05-09T22:04:52.374Z,17.30
2024-05-09T22:07:39.021Z,13.60
2024-05-09T22:10:31.096Z,12.20
2024-05-09T22:13:20.741Z,12.70
2024-05-09T22:16:07.881Z,11.70
2024-05-09T22:18:54.384Z,12.20
2024-05-09T22:21:40.970Z,11.20
2024-05-09T22:24:27.397Z,10.20
2024-05-09T22:27:13.539Z,13.80
2024-05-09T22:29:59.604Z,9.50
2024-05-09T22:32:49.806Z,10.70
2024-05-09T22:35:35.902Z,11.70
2024-05-09T22:38:21.960Z,13.40
2024-05-09T22:41:09.371Z,10.60
2024-05-09T22:43:55.613Z,11.60
2024-05-09T22:46:41.761Z,13.10
2024-05-09T22:49:29.462Z,12.30
2024-05-09T22:52:15.915Z,9.70
2024-05-09T22:55:01.943Z,9.20
2024-05-09T22:57:48.374Z,8.70
2024-05-09T23:00:34.963Z,12.70
2024-05-09T23:03:22.655Z,8.30
2024-05-09T23:06:08.974Z,8.40
2024-05-09T23:08:55.088Z,11.90
2024-05-09T23:11:42.035Z,10.10
2024-05-09T23:14:28.353Z,10.50
2024-05-09T23:17:14.510Z,9.00
2024-05-09T23:20:00.539Z,8.30
2024-05-09T23:22:46.438Z,9.70
2024-05-09T23:25:33.144Z,10.80
2024-05-09T23:28:19.379Z,13.90
2024-05-09T23:31:05.504Z,9.50
2024-05-09T23:33:51.953Z,10.60
2024-05-09T23:36:38.670Z,9.80
2024-05-09T23:39:24.758Z,11.00
2024-05-09T23:42:10.866Z,13.50
2024-05-09T23:44:58.224Z,11.60
2024-05-09T23:47:45.923Z,11.60
2024-05-09T23:50:36.122Z,13.30
2024-05-09T23:53:24.671Z,12.50
2024-05-09T23:56:15.630Z,13.70
2024-05-09T23:59:01.876Z,16.80
